Main page
METAR-TAF:

METAR-TAF

Airports :

Sherbrooke Airport

Sherbrooke, Quebec, Canada

latitude: 45-24N, longitude: 071-53W, elevation: 558 ft

Current weather observation

The report was made 1 hour and 1 minutes ago, at 09:00 UTC
Wind 6 mph from the East
Temperature 27°F
Humidity 80%
Pressure 29.90 in. Hg
Visibility: 9 miles
Overcast at a height of 6500 ft

METAR: CYSC 240900Z AUTO 08005KT 9SM OVC065 M03/M06 A2990 RMK SLP135

Time: 05:01 (10:01 UTC)

Forecast

The report was made 10 hours and 23 minutes ago, at 23:38 UTC
Forecast valid from 24 at 00 UTC to 24 at 03 UTC
Wind 6 mph from the South
Visibility: 6 miles
Broken clouds at a height of 25000 ft

TAF: CYSC 232338Z 2400/2403 19005KT P6SM BKN250 RMK FCST BASED ON AUTO OBS. NXT FCST WILL BE ISSUED AT 241045Z

Weather observations and forecasts of more than 4000 airports (METAR and TAF reports).

The available stations are represented by yellow and red dots on the map.

Hover mouse over dot to see the name of the station.

Then click to see weather observations and forecasts.

To change the map : click on the green buttons with a black cross to zoom in, on the green button with a dash to zoom out, or on the green arrows for adjacent maps.


METAR-TAF: